sensor_id;sensor_type;location;lat;lon;timestamp;temperature;humidity
8953;DHT22;4511;50.890;8.054;2023-03-03T00:01:05;2.90;99.90
8953;DHT22;4511;50.890;8.054;2023-03-03T00:03:32;2.80;99.90
8953;DHT22;4511;50.890;8.054;2023-03-03T00:05:59;2.80;99.90
8953;DHT22;4511;50.890;8.054;2023-03-03T00:08:27;2.80;99.90
8953;DHT22;4511;50.890;8.054;2023-03-03T00:10:54;2.90;99.90
8953;DHT22;4511;50.890;8.054;2023-03-03T00:13:25;2.80;99.90
8953;DHT22;4511;50.890;8.054;2023-03-03T00:15:53;2.70;99.90
8953;DHT22;4511;50.890;8.054;2023-03-03T00:18:23;2.70;99.90
8953;DHT22;4511;50.890;8.054;2023-03-03T00:20:54;2.60;99.90
8953;DHT22;4511;50.890;8.054;2023-03-03T00:23:39;2.60;99.90
8953;DHT22;4511;50.890;8.054;2023-03-03T00:26:17;2.50;99.90
8953;DHT22;4511;50.890;8.054;2023-03-03T00:28:49;2.50;99.90
8953;DHT22;4511;50.890;8.054;2023-03-03T00:31:18;2.60;99.90
8953;DHT22;4511;50.890;8.054;2023-03-03T00:33:48;2.50;99.90
8953;DHT22;4511;50.890;8.054;2023-03-03T00:36:27;2.50;99.90
8953;DHT22;4511;50.890;8.054;2023-03-03T00:38:59;2.40;99.90
8953;DHT22;4511;50.890;8.054;2023-03-03T00:41:36;2.40;99.90
8953;DHT22;4511;50.890;8.054;2023-03-03T00:44:30;2.30;99.90
8953;DHT22;4511;50.890;8.054;2023-03-03T00:47:05;2.30;99.90
8953;DHT22;4511;50.890;8.054;2023-03-03T00:49:38;2.30;99.90
8953;DHT22;4511;50.890;8.054;2023-03-03T00:52:10;2.30;99.90
8953;DHT22;4511;50.890;8.054;2023-03-03T00:54:38;2.30;99.90
8953;DHT22;4511;50.890;8.054;2023-03-03T00:57:04;2.30;99.90
8953;DHT22;4511;50.890;8.054;2023-03-03T00:59:33;2.30;99.90
8953;DHT22;4511;50.890;8.054;2023-03-03T01:01:59;2.40;99.90
8953;DHT22;4511;50.890;8.054;2023-03-03T01:04:26;2.40;99.90
8953;DHT22;4511;50.890;8.054;2023-03-03T01:06:53;2.30;99.90
8953;DHT22;4511;50.890;8.054;2023-03-03T01:09:20;2.40;99.90
8953;DHT22;4511;50.890;8.054;2023-03-03T01:11:47;2.40;99.90
8953;DHT22;4511;50.890;8.054;2023-03-03T01:14:15;2.30;99.90
8953;DHT22;4511;50.890;8.054;2023-03-03T01:16:43;2.30;99.90
8953;DHT22;4511;50.890;8.054;2023-03-03T01:19:10;2.30;99.90
8953;DHT22;4511;50.890;8.054;2023-03-03T01:21:36;2.30;99.90
8953;DHT22;4511;50.890;8.054;2023-03-03T01:24:04;2.10;99.90
8953;DHT22;4511;50.890;8.054;2023-03-03T01:26:31;2.10;99.90
8953;DHT22;4511;50.890;8.054;2023-03-03T01:28:58;2.20;99.90
8953;DHT22;4511;50.890;8.054;2023-03-03T01:31:24;2.20;99.90
8953;DHT22;4511;50.890;8.054;2023-03-03T01:33:52;2.20;99.90
8953;DHT22;4511;50.890;8.054;2023-03-03T01:36:22;2.30;99.90
8953;DHT22;4511;50.890;8.054;2023-03-03T01:38:50;2.30;99.90
8953;DHT22;4511;50.890;8.054;2023-03-03T01:41:17;2.30;99.90
8953;DHT22;4511;50.890;8.054;2023-03-03T01:43:45;1.90;99.90
8953;DHT22;4511;50.890;8.054;2023-03-03T01:46:33;1.80;99.90
8953;DHT22;4511;50.890;8.054;2023-03-03T01:49:05;1.70;99.90
8953;DHT22;4511;50.890;8.054;2023-03-03T01:51:35;1.80;99.90
8953;DHT22;4511;50.890;8.054;2023-03-03T01:54:05;1.90;99.90
8953;DHT22;4511;50.890;8.054;2023-03-03T01:56:32;2.00;99.90
8953;DHT22;4511;50.890;8.054;2023-03-03T01:59:02;1.90;99.90
8953;DHT22;4511;50.890;8.054;2023-03-03T02:01:32;1.90;99.90
8953;DHT22;4511;50.890;8.054;2023-03-03T02:03:59;1.90;99.90
8953;DHT22;4511;50.890;8.054;2023-03-03T02:06:31;2.00;99.90
8953;DHT22;4511;50.890;8.054;2023-03-03T02:09:04;2.00;99.90
8953;DHT22;4511;50.890;8.054;2023-03-03T02:11:35;2.00;99.90
8953;DHT22;4511;50.890;8.054;2023-03-03T02:14:02;1.90;99.90
8953;DHT22;4511;50.890;8.054;2023-03-03T02:16:29;1.80;99.90
8953;DHT22;4511;50.890;8.054;2023-03-03T02:18:56;1.80;99.90
8953;DHT22;4511;50.890;8.054;2023-03-03T02:21:24;1.70;99.90
8953;DHT22;4511;50.890;8.054;2023-03-03T02:23:59;1.70;99.90
8953;DHT22;4511;50.890;8.054;2023-03-03T02:26:31;1.80;99.90
8953;DHT22;4511;50.890;8.054;2023-03-03T02:28:59;1.80;99.90
8953;DHT22;4511;50.890;8.054;2023-03-03T02:31:28;1.80;99.90
8953;DHT22;4511;50.890;8.054;2023-03-03T02:33:55;1.80;99.90
8953;DHT22;4511;50.890;8.054;2023-03-03T02:36:23;1.80;99.90
8953;DHT22;4511;50.890;8.054;2023-03-03T02:38:54;1.90;99.90
8953;DHT22;4511;50.890;8.054;2023-03-03T02:41:29;1.70;99.90
8953;DHT22;4511;50.890;8.054;2023-03-03T02:44:00;1.70;99.90
8953;DHT22;4511;50.890;8.054;2023-03-03T02:46:31;1.70;99.90
8953;DHT22;4511;50.890;8.054;2023-03-03T02:48:58;1.80;99.90
8953;DHT22;4511;50.890;8.054;2023-03-03T02:51:25;1.70;99.90
8953;DHT22;4511;50.890;8.054;2023-03-03T02:53:51;1.60;99.90
8953;DHT22;4511;50.890;8.054;2023-03-03T02:56:18;1.70;99.90
8953;DHT22;4511;50.890;8.054;2023-03-03T02:58:47;1.70;99.90
8953;DHT22;4511;50.890;8.054;2023-03-03T03:01:13;1.70;99.90
8953;DHT22;4511;50.890;8.054;2023-03-03T03:03:40;1.60;99.90
8953;DHT22;4511;50.890;8.054;2023-03-03T03:06:07;1.50;99.90
8953;DHT22;4511;50.890;8.054;2023-03-03T03:08:34;1.40;99.90
8953;DHT22;4511;50.890;8.054;2023-03-03T03:11:01;1.40;99.90
8953;DHT22;4511;50.890;8.054;2023-03-03T03:13:28;1.40;99.90
8953;DHT22;4511;50.890;8.054;2023-03-03T03:15:57;1.50;99.90
8953;DHT22;4511;50.890;8.054;2023-03-03T03:18:24;1.40;99.90
8953;DHT22;4511;50.890;8.054;2023-03-03T03:20:50;1.40;99.90
8953;DHT22;4511;50.890;8.054;2023-03-03T03:23:17;1.40;99.90
8953;DHT22;4511;50.890;8.054;2023-03-03T03:25:46;1.30;99.90
8953;DHT22;4511;50.890;8.054;2023-03-03T03:28:14;1.20;99.90
8953;DHT22;4511;50.890;8.054;2023-03-03T03:30:41;1.10;99.90
8953;DHT22;4511;50.890;8.054;2023-03-03T03:33:11;1.10;99.90
8953;DHT22;4511;50.890;8.054;2023-03-03T03:35:38;1.20;99.90
8953;DHT22;4511;50.890;8.054;2023-03-03T03:38:10;1.30;99.90
8953;DHT22;4511;50.890;8.054;2023-03-03T03:40:37;1.30;99.90
8953;DHT22;4511;50.890;8.054;2023-03-03T03:43:04;1.20;99.90
8953;DHT22;4511;50.890;8.054;2023-03-03T03:45:30;1.20;99.90
8953;DHT22;4511;50.890;8.054;2023-03-03T03:47:57;1.20;99.90
8953;DHT22;4511;50.890;8.054;2023-03-03T03:50:25;1.30;99.90
8953;DHT22;4511;50.890;8.054;2023-03-03T03:52:52;1.30;99.90
8953;DHT22;4511;50.890;8.054;2023-03-03T03:55:19;1.30;99.90
8953;DHT22;4511;50.890;8.054;2023-03-03T03:57:47;1.40;99.90
8953;DHT22;4511;50.890;8.054;2023-03-03T04:00:14;1.50;99.90
8953;DHT22;4511;50.890;8.054;2023-03-03T04:02:41;1.30;99.90
8953;DHT22;4511;50.890;8.054;2023-03-03T04:05:08;1.20;99.90
8953;DHT22;4511;50.890;8.054;2023-03-03T04:07:36;0.80;99.90
8953;DHT22;4511;50.890;8.054;2023-03-03T04:10:03;0.80;99.90
8953;DHT22;4511;50.890;8.054;2023-03-03T04:12:30;0.90;99.90
8953;DHT22;4511;50.890;8.054;2023-03-03T04:15:03;0.90;99.90
8953;DHT22;4511;50.890;8.054;2023-03-03T04:17:30;0.90;99.90
8953;DHT22;4511;50.890;8.054;2023-03-03T04:19:57;0.80;99.90
8953;DHT22;4511;50.890;8.054;2023-03-03T04:22:24;0.70;99.90
8953;DHT22;4511;50.890;8.054;2023-03-03T04:24:53;0.70;99.90
8953;DHT22;4511;50.890;8.054;2023-03-03T04:27:19;0.80;99.90
8953;DHT22;4511;50.890;8.054;2023-03-03T04:29:46;0.80;99.90
8953;DHT22;4511;50.890;8.054;2023-03-03T04:32:13;0.80;99.90
8953;DHT22;4511;50.890;8.054;2023-03-03T04:34:40;0.80;99.90
8953;DHT22;4511;50.890;8.054;2023-03-03T04:37:07;0.90;99.90
8953;DHT22;4511;50.890;8.054;2023-03-03T04:39:34;0.80;99.90
8953;DHT22;4511;50.890;8.054;2023-03-03T04:42:02;0.80;99.90
8953;DHT22;4511;50.890;8.054;2023-03-03T04:44:29;0.90;99.90
8953;DHT22;4511;50.890;8.054;2023-03-03T04:46:55;0.90;99.90
8953;DHT22;4511;50.890;8.054;2023-03-03T04:49:22;0.60;99.90
8953;DHT22;4511;50.890;8.054;2023-03-03T04:51:49;0.60;99.90
8953;DHT22;4511;50.890;8.054;2023-03-03T04:54:16;0.80;99.90
8953;DHT22;4511;50.890;8.054;2023-03-03T04:56:43;0.90;99.90
8953;DHT22;4511;50.890;8.054;2023-03-03T04:59:11;0.80;99.90
8953;DHT22;4511;50.890;8.054;2023-03-03T05:01:38;0.80;99.90
8953;DHT22;4511;50.890;8.054;2023-03-03T05:04:05;0.90;99.90
8953;DHT22;4511;50.890;8.054;2023-03-03T05:06:32;0.80;99.90
8953;DHT22;4511;50.890;8.054;2023-03-03T05:08:59;0.70;99.90
8953;DHT22;4511;50.890;8.054;2023-03-03T05:11:25;0.70;99.90
8953;DHT22;4511;50.890;8.054;2023-03-03T05:13:52;0.60;99.90
8953;DHT22;4511;50.890;8.054;2023-03-03T05:16:20;0.70;99.90
8953;DHT22;4511;50.890;8.054;2023-03-03T05:18:47;0.70;99.90
8953;DHT22;4511;50.890;8.054;2023-03-03T05:21:14;0.70;99.90
8953;DHT22;4511;50.890;8.054;2023-03-03T05:23:41;0.70;99.90
8953;DHT22;4511;50.890;8.054;2023-03-03T05:26:07;0.70;99.90
8953;DHT22;4511;50.890;8.054;2023-03-03T05:28:34;0.80;99.90
8953;DHT22;4511;50.890;8.054;2023-03-03T05:31:01;0.70;99.90
8953;DHT22;4511;50.890;8.054;2023-03-03T05:33:29;0.80;99.90
8953;DHT22;4511;50.890;8.054;2023-03-03T05:35:56;0.80;99.90
8953;DHT22;4511;50.890;8.054;2023-03-03T05:38:24;0.70;99.90
8953;DHT22;4511;50.890;8.054;2023-03-03T05:40:51;0.80;99.90
8953;DHT22;4511;50.890;8.054;2023-03-03T05:43:19;0.80;99.90
8953;DHT22;4511;50.890;8.054;2023-03-03T05:45:46;0.90;99.90
8953;DHT22;4511;50.890;8.054;2023-03-03T05:48:12;0.90;99.90
8953;DHT22;4511;50.890;8.054;2023-03-03T05:50:40;0.90;99.90
8953;DHT22;4511;50.890;8.054;2023-03-03T05:53:07;0.80;99.90
8953;DHT22;4511;50.890;8.054;2023-03-03T05:55:34;0.80;99.90
8953;DHT22;4511;50.890;8.054;2023-03-03T05:58:01;0.80;99.90
8953;DHT22;4511;50.890;8.054;2023-03-03T06:00:27;0.80;99.90
8953;DHT22;4511;50.890;8.054;2023-03-03T06:02:54;0.80;99.90
8953;DHT22;4511;50.890;8.054;2023-03-03T06:05:21;1.50;99.90
8953;DHT22;4511;50.890;8.054;2023-03-03T06:07:49;1.30;99.90
8953;DHT22;4511;50.890;8.054;2023-03-03T06:10:16;1.10;99.90
8953;DHT22;4511;50.890;8.054;2023-03-03T06:12:42;1.10;99.90
8953;DHT22;4511;50.890;8.054;2023-03-03T06:15:11;1.00;99.90
8953;DHT22;4511;50.890;8.054;2023-03-03T06:17:38;0.90;99.90
8953;DHT22;4511;50.890;8.054;2023-03-03T06:20:05;0.80;99.90
8953;DHT22;4511;50.890;8.054;2023-03-03T06:22:32;0.80;99.90
8953;DHT22;4511;50.890;8.054;2023-03-03T06:25:00;0.90;99.90
8953;DHT22;4511;50.890;8.054;2023-03-03T06:27:27;0.90;99.90
8953;DHT22;4511;50.890;8.054;2023-03-03T06:29:54;1.00;99.90
8953;DHT22;4511;50.890;8.054;2023-03-03T06:32:21;1.00;99.90
8953;DHT22;4511;50.890;8.054;2023-03-03T06:34:48;0.90;99.90
8953;DHT22;4511;50.890;8.054;2023-03-03T06:37:14;0.90;99.90
8953;DHT22;4511;50.890;8.054;2023-03-03T06:39:41;0.80;99.90
8953;DHT22;4511;50.890;8.054;2023-03-03T06:42:09;0.90;99.90
8953;DHT22;4511;50.890;8.054;2023-03-03T06:44:36;0.90;99.90
8953;DHT22;4511;50.890;8.054;2023-03-03T06:47:06;0.80;99.90
8953;DHT22;4511;50.890;8.054;2023-03-03T06:49:33;0.80;99.90
8953;DHT22;4511;50.890;8.054;2023-03-03T06:52:04;0.90;99.90
8953;DHT22;4511;50.890;8.054;2023-03-03T06:54:35;0.90;99.90
8953;DHT22;4511;50.890;8.054;2023-03-03T06:57:14;1.10;99.90
8953;DHT22;4511;50.890;8.054;2023-03-03T06:59:41;1.10;99.90
8953;DHT22;4511;50.890;8.054;2023-03-03T07:02:13;1.20;99.90
8953;DHT22;4511;50.890;8.054;2023-03-03T07:04:41;1.20;99.90
8953;DHT22;4511;50.890;8.054;2023-03-03T07:07:14;1.20;99.90
8953;DHT22;4511;50.890;8.054;2023-03-03T07:09:43;1.20;99.90
8953;DHT22;4511;50.890;8.054;2023-03-03T07:12:15;1.20;99.90
8953;DHT22;4511;50.890;8.054;2023-03-03T07:14:47;1.20;99.90
8953;DHT22;4511;50.890;8.054;2023-03-03T07:17:17;1.30;99.90
8953;DHT22;4511;50.890;8.054;2023-03-03T07:19:46;1.30;99.90
8953;DHT22;4511;50.890;8.054;2023-03-03T07:22:15;1.30;99.90
8953;DHT22;4511;50.890;8.054;2023-03-03T07:24:44;1.40;99.90
8953;DHT22;4511;50.890;8.054;2023-03-03T07:27:16;1.50;99.90
8953;DHT22;4511;50.890;8.054;2023-03-03T07:29:46;1.60;99.90
8953;DHT22;4511;50.890;8.054;2023-03-03T07:32:24;1.50;99.90
8953;DHT22;4511;50.890;8.054;2023-03-03T07:34:53;1.50;99.90
8953;DHT22;4511;50.890;8.054;2023-03-03T07:37:28;1.60;99.90
8953;DHT22;4511;50.890;8.054;2023-03-03T07:39:55;1.60;99.90
8953;DHT22;4511;50.890;8.054;2023-03-03T07:42:25;1.70;99.90
8953;DHT22;4511;50.890;8.054;2023-03-03T07:44:54;1.80;99.90
8953;DHT22;4511;50.890;8.054;2023-03-03T07:47:24;1.90;99.90
8953;DHT22;4511;50.890;8.054;2023-03-03T07:49:51;1.90;99.90
8953;DHT22;4511;50.890;8.054;2023-03-03T07:52:30;1.90;99.90
8953;DHT22;4511;50.890;8.054;2023-03-03T07:54:59;2.00;99.90
8953;DHT22;4511;50.890;8.054;2023-03-03T07:57:34;2.00;99.90
8953;DHT22;4511;50.890;8.054;2023-03-03T08:03:12;2.10;99.90
8953;DHT22;4511;50.890;8.054;2023-03-03T08:05:41;2.20;99.90
8953;DHT22;4511;50.890;8.054;2023-03-03T08:08:18;2.30;99.90
8953;DHT22;4511;50.890;8.054;2023-03-03T08:10:48;2.30;99.90
8953;DHT22;4511;50.890;8.054;2023-03-03T08:13:19;2.40;99.90
8953;DHT22;4511;50.890;8.054;2023-03-03T08:15:49;2.50;99.90
8953;DHT22;4511;50.890;8.054;2023-03-03T08:18:22;2.50;99.90
8953;DHT22;4511;50.890;8.054;2023-03-03T08:20:54;2.60;99.90
8953;DHT22;4511;50.890;8.054;2023-03-03T08:23:21;2.70;99.90
8953;DHT22;4511;50.890;8.054;2023-03-03T08:25:49;2.70;99.90
8953;DHT22;4511;50.890;8.054;2023-03-03T08:28:18;2.80;99.90
8953;DHT22;4511;50.890;8.054;2023-03-03T08:30:46;2.90;99.90
8953;DHT22;4511;50.890;8.054;2023-03-03T08:33:13;2.80;99.90
8953;DHT22;4511;50.890;8.054;2023-03-03T08:35:40;2.80;99.90
8953;DHT22;4511;50.890;8.054;2023-03-03T08:38:08;2.80;99.90
8953;DHT22;4511;50.890;8.054;2023-03-03T08:40:35;2.90;99.90
8953;DHT22;4511;50.890;8.054;2023-03-03T08:43:03;2.90;99.90
8953;DHT22;4511;50.890;8.054;2023-03-03T08:45:31;3.10;99.90
8953;DHT22;4511;50.890;8.054;2023-03-03T08:47:58;3.20;99.90
8953;DHT22;4511;50.890;8.054;2023-03-03T08:50:26;3.40;99.90
8953;DHT22;4511;50.890;8.054;2023-03-03T08:52:53;3.50;99.90
8953;DHT22;4511;50.890;8.054;2023-03-03T08:55:20;3.50;99.90
8953;DHT22;4511;50.890;8.054;2023-03-03T08:57:47;3.50;99.90
8953;DHT22;4511;50.890;8.054;2023-03-03T09:00:16;3.60;99.90
8953;DHT22;4511;50.890;8.054;2023-03-03T09:02:45;3.60;99.90
8953;DHT22;4511;50.890;8.054;2023-03-03T09:05:12;3.60;99.90
8953;DHT22;4511;50.890;8.054;2023-03-03T09:07:39;3.70;99.90
8953;DHT22;4511;50.890;8.054;2023-03-03T09:10:08;3.80;99.90
8953;DHT22;4511;50.890;8.054;2023-03-03T09:12:37;3.90;99.90
8953;DHT22;4511;50.890;8.054;2023-03-03T09:15:14;4.00;99.90
8953;DHT22;4511;50.890;8.054;2023-03-03T09:17:41;4.20;99.90
8953;DHT22;4511;50.890;8.054;2023-03-03T09:20:29;4.30;99.90
8953;DHT22;4511;50.890;8.054;2023-03-03T09:22:57;4.40;99.90
8953;DHT22;4511;50.890;8.054;2023-03-03T09:25:30;4.50;99.90
8953;DHT22;4511;50.890;8.054;2023-03-03T09:27:58;4.60;99.90
8953;DHT22;4511;50.890;8.054;2023-03-03T09:30:37;4.80;99.90
8953;DHT22;4511;50.890;8.054;2023-03-03T09:33:26;4.90;99.90
8953;DHT22;4511;50.890;8.054;2023-03-03T09:36:00;5.10;99.90
8953;DHT22;4511;50.890;8.054;2023-03-03T09:38:30;5.10;99.90
8953;DHT22;4511;50.890;8.054;2023-03-03T09:44:09;5.60;99.90
8953;DHT22;4511;50.890;8.054;2023-03-03T09:46:51;5.50;99.90
8953;DHT22;4511;50.890;8.054;2023-03-03T09:49:24;5.60;99.90
8953;DHT22;4511;50.890;8.054;2023-03-03T09:52:05;5.70;99.90
8953;DHT22;4511;50.890;8.054;2023-03-03T09:54:46;5.90;99.90
8953;DHT22;4511;50.890;8.054;2023-03-03T09:57:21;6.00;99.90
8953;DHT22;4511;50.890;8.054;2023-03-03T10:00:07;6.20;99.90
8953;DHT22;4511;50.890;8.054;2023-03-03T10:02:46;6.20;99.90
8953;DHT22;4511;50.890;8.054;2023-03-03T10:05:23;6.30;99.90
8953;DHT22;4511;50.890;8.054;2023-03-03T10:08:02;6.50;99.90
8953;DHT22;4511;50.890;8.054;2023-03-03T10:10:44;6.60;99.90
8953;DHT22;4511;50.890;8.054;2023-03-03T10:13:20;6.70;99.90
8953;DHT22;4511;50.890;8.054;2023-03-03T10:15:58;6.70;99.90
8953;DHT22;4511;50.890;8.054;2023-03-03T10:18:38;6.80;99.90
8953;DHT22;4511;50.890;8.054;2023-03-03T10:21:09;7.00;99.90
8953;DHT22;4511;50.890;8.054;2023-03-03T10:23:53;7.00;99.90
8953;DHT22;4511;50.890;8.054;2023-03-03T10:26:37;7.10;99.90
8953;DHT22;4511;50.890;8.054;2023-03-03T10:29:25;7.20;99.90
8953;DHT22;4511;50.890;8.054;2023-03-03T10:32:04;7.40;99.90
8953;DHT22;4511;50.890;8.054;2023-03-03T10:34:53;7.60;99.90
8953;DHT22;4511;50.890;8.054;2023-03-03T10:37:25;7.40;99.90
8953;DHT22;4511;50.890;8.054;2023-03-03T10:40:07;7.10;99.90
8953;DHT22;4511;50.890;8.054;2023-03-03T10:42:53;7.10;99.90
8953;DHT22;4511;50.890;8.054;2023-03-03T10:45:51;7.30;99.90
8953;DHT22;4511;50.890;8.054;2023-03-03T10:48:37;7.40;99.90
8953;DHT22;4511;50.890;8.054;2023-03-03T10:51:15;7.60;99.90
8953;DHT22;4511;50.890;8.054;2023-03-03T10:53:48;8.00;99.90
8953;DHT22;4511;50.890;8.054;2023-03-03T10:56:28;7.80;99.90
8953;DHT22;4511;50.890;8.054;2023-03-03T10:59:09;7.90;99.90
8953;DHT22;4511;50.890;8.054;2023-03-03T11:01:48;8.40;99.90
8953;DHT22;4511;50.890;8.054;2023-03-03T11:04:35;8.10;99.90
8953;DHT22;4511;50.890;8.054;2023-03-03T11:07:12;8.20;99.90
8953;DHT22;4511;50.890;8.054;2023-03-03T11:09:51;8.50;99.90
8953;DHT22;4511;50.890;8.054;2023-03-03T11:12:35;8.80;99.90
8953;DHT22;4511;50.890;8.054;2023-03-03T11:15:23;8.80;99.90
8953;DHT22;4511;50.890;8.054;2023-03-03T11:20:59;9.00;98.40
8953;DHT22;4511;50.890;8.054;2023-03-03T11:23:46;9.10;98.10
8953;DHT22;4511;50.890;8.054;2023-03-03T11:26:26;9.30;97.30
8953;DHT22;4511;50.890;8.054;2023-03-03T11:29:09;9.30;96.70
8953;DHT22;4511;50.890;8.054;2023-03-03T11:31:45;9.30;97.00
8953;DHT22;4511;50.890;8.054;2023-03-03T11:34:22;9.60;96.50
8953;DHT22;4511;50.890;8.054;2023-03-03T11:36:52;9.50;95.50
8953;DHT22;4511;50.890;8.054;2023-03-03T11:39:23;9.70;95.50
8953;DHT22;4511;50.890;8.054;2023-03-03T11:42:00;10.00;94.40
8953;DHT22;4511;50.890;8.054;2023-03-03T11:44:34;9.80;94.60
8953;DHT22;4511;50.890;8.054;2023-03-03T11:47:07;9.60;95.10
8953;DHT22;4511;50.890;8.054;2023-03-03T11:49:40;10.00;94.40
8953;DHT22;4511;50.890;8.054;2023-03-03T11:52:19;9.50;95.00
8953;DHT22;4511;50.890;8.054;2023-03-03T11:54:51;9.40;95.30
8953;DHT22;4511;50.890;8.054;2023-03-03T11:57:22;9.90;95.00
8953;DHT22;4511;50.890;8.054;2023-03-03T12:00:02;9.80;95.80
8953;DHT22;4511;50.890;8.054;2023-03-03T12:02:48;9.80;94.50
8953;DHT22;4511;50.890;8.054;2023-03-03T12:05:29;9.20;94.40
8953;DHT22;4511;50.890;8.054;2023-03-03T12:08:04;9.70;93.70
8953;DHT22;4511;50.890;8.054;2023-03-03T12:10:35;9.50;93.80
8953;DHT22;4511;50.890;8.054;2023-03-03T12:13:15;9.80;94.20
8953;DHT22;4511;50.890;8.054;2023-03-03T12:15:47;10.00;92.90
8953;DHT22;4511;50.890;8.054;2023-03-03T12:18:48;10.10;92.50
8953;DHT22;4511;50.890;8.054;2023-03-03T12:21:42;9.90;93.10
8953;DHT22;4511;50.890;8.054;2023-03-03T12:24:21;10.60;91.00
8953;DHT22;4511;50.890;8.054;2023-03-03T12:26:53;10.70;91.20
8953;DHT22;4511;50.890;8.054;2023-03-03T12:29:29;11.40;90.20
8953;DHT22;4511;50.890;8.054;2023-03-03T12:32:07;11.00;88.80
8953;DHT22;4511;50.890;8.054;2023-03-03T12:34:40;11.00;88.40
8953;DHT22;4511;50.890;8.054;2023-03-03T12:37:25;11.10;89.20
8953;DHT22;4511;50.890;8.054;2023-03-03T12:40:02;11.10;87.20
8953;DHT22;4511;50.890;8.054;2023-03-03T12:42:40;11.30;85.80
8953;DHT22;4511;50.890;8.054;2023-03-03T12:45:23;11.40;84.30
8953;DHT22;4511;50.890;8.054;2023-03-03T12:47:59;12.10;83.70
8953;DHT22;4511;50.890;8.054;2023-03-03T12:50:35;12.20;83.20
8953;DHT22;4511;50.890;8.054;2023-03-03T12:53:20;11.50;82.60
8953;DHT22;4511;50.890;8.054;2023-03-03T12:55:52;11.50;81.10
8953;DHT22;4511;50.890;8.054;2023-03-03T12:58:34;11.80;80.60
8953;DHT22;4511;50.890;8.054;2023-03-03T13:01:11;12.00;81.50
8953;DHT22;4511;50.890;8.054;2023-03-03T13:03:48;12.30;79.30
8953;DHT22;4511;50.890;8.054;2023-03-03T13:06:24;13.30;78.20
8953;DHT22;4511;50.890;8.054;2023-03-03T13:09:06;13.20;74.40
8953;DHT22;4511;50.890;8.054;2023-03-03T13:11:58;13.40;74.20
8953;DHT22;4511;50.890;8.054;2023-03-03T13:14:34;13.60;74.80
8953;DHT22;4511;50.890;8.054;2023-03-03T13:17:12;13.50;72.30
8953;DHT22;4511;50.890;8.054;2023-03-03T13:19:45;13.30;72.80
8953;DHT22;4511;50.890;8.054;2023-03-03T13:22:17;14.10;71.20
8953;DHT22;4511;50.890;8.054;2023-03-03T13:24:56;13.60;72.20
8953;DHT22;4511;50.890;8.054;2023-03-03T13:27:29;13.30;70.10
8953;DHT22;4511;50.890;8.054;2023-03-03T13:30:00;13.90;69.90
8953;DHT22;4511;50.890;8.054;2023-03-03T13:32:32;14.20;68.60
8953;DHT22;4511;50.890;8.054;2023-03-03T13:35:07;15.10;67.40
8953;DHT22;4511;50.890;8.054;2023-03-03T13:37:36;15.00;66.70
8953;DHT22;4511;50.890;8.054;2023-03-03T13:40:13;15.00;64.80
8953;DHT22;4511;50.890;8.054;2023-03-03T13:42:44;14.60;64.90
8953;DHT22;4511;50.890;8.054;2023-03-03T13:45:17;15.00;64.20
8953;DHT22;4511;50.890;8.054;2023-03-03T13:47:49;14.70;63.30
8953;DHT22;4511;50.890;8.054;2023-03-03T13:50:22;15.00;64.30
8953;DHT22;4511;50.890;8.054;2023-03-03T13:53:00;15.20;61.80
8953;DHT22;4511;50.890;8.054;2023-03-03T13:55:34;15.20;60.30
8953;DHT22;4511;50.890;8.054;2023-03-03T13:58:08;14.60;61.50
8953;DHT22;4511;50.890;8.054;2023-03-03T14:00:47;15.10;61.60
8953;DHT22;4511;50.890;8.054;2023-03-03T14:03:27;15.40;60.60
8953;DHT22;4511;50.890;8.054;2023-03-03T14:06:01;15.80;60.50
8953;DHT22;4511;50.890;8.054;2023-03-03T14:08:47;16.10;59.30
8953;DHT22;4511;50.890;8.054;2023-03-03T14:11:20;16.30;58.40
8953;DHT22;4511;50.890;8.054;2023-03-03T14:13:53;16.60;58.60
8953;DHT22;4511;50.890;8.054;2023-03-03T14:16:38;16.70;57.20
8953;DHT22;4511;50.890;8.054;2023-03-03T14:19:13;16.60;57.10
8953;DHT22;4511;50.890;8.054;2023-03-03T14:21:50;16.80;56.30
8953;DHT22;4511;50.890;8.054;2023-03-03T14:24:20;16.70;56.30
8953;DHT22;4511;50.890;8.054;2023-03-03T14:26:48;17.20;56.10
8953;DHT22;4511;50.890;8.054;2023-03-03T14:29:21;17.20;55.30
8953;DHT22;4511;50.890;8.054;2023-03-03T14:31:48;17.40;55.70
8953;DHT22;4511;50.890;8.054;2023-03-03T14:34:33;17.20;56.70
8953;DHT22;4511;50.890;8.054;2023-03-03T14:37:24;16.90;57.20
8953;DHT22;4511;50.890;8.054;2023-03-03T14:40:12;16.30;59.00
8953;DHT22;4511;50.890;8.054;2023-03-03T14:42:46;15.70;58.30
8953;DHT22;4511;50.890;8.054;2023-03-03T14:45:20;15.90;58.50
8953;DHT22;4511;50.890;8.054;2023-03-03T14:47:48;15.90;58.50
8953;DHT22;4511;50.890;8.054;2023-03-03T14:50:37;16.10;58.10
8953;DHT22;4511;50.890;8.054;2023-03-03T14:53:10;16.50;57.60
8953;DHT22;4511;50.890;8.054;2023-03-03T14:55:41;16.60;57.00
8953;DHT22;4511;50.890;8.054;2023-03-03T14:58:27;16.70;56.40
8953;DHT22;4511;50.890;8.054;2023-03-03T15:01:13;17.00;56.40
8953;DHT22;4511;50.890;8.054;2023-03-03T15:03:46;16.80;56.70
8953;DHT22;4511;50.890;8.054;2023-03-03T15:06:28;17.20;56.90
8953;DHT22;4511;50.890;8.054;2023-03-03T15:09:19;17.00;57.40
8953;DHT22;4511;50.890;8.054;2023-03-03T15:11:46;17.60;57.10
8953;DHT22;4511;50.890;8.054;2023-03-03T15:14:18;18.10;56.90
8953;DHT22;4511;50.890;8.054;2023-03-03T15:16:45;18.40;56.60
8953;DHT22;4511;50.890;8.054;2023-03-03T15:19:39;18.30;56.00
8953;DHT22;4511;50.890;8.054;2023-03-03T15:22:17;18.90;56.10
8953;DHT22;4511;50.890;8.054;2023-03-03T15:24:51;18.50;55.40
8953;DHT22;4511;50.890;8.054;2023-03-03T15:27:24;17.20;55.60
8953;DHT22;4511;50.890;8.054;2023-03-03T15:30:03;15.40;57.90
8953;DHT22;4511;50.890;8.054;2023-03-03T15:32:37;14.30;60.00
8953;DHT22;4511;50.890;8.054;2023-03-03T15:35:17;13.50;61.70
8953;DHT22;4511;50.890;8.054;2023-03-03T15:37:52;12.80;64.00
8953;DHT22;4511;50.890;8.054;2023-03-03T15:40:27;12.50;65.10
8953;DHT22;4511;50.890;8.054;2023-03-03T15:43:01;12.00;66.30
8953;DHT22;4511;50.890;8.054;2023-03-03T15:45:32;11.80;68.10
8953;DHT22;4511;50.890;8.054;2023-03-03T15:48:23;11.70;68.50
8953;DHT22;4511;50.890;8.054;2023-03-03T15:50:59;11.50;69.40
8953;DHT22;4511;50.890;8.054;2023-03-03T15:53:39;12.80;69.10
8953;DHT22;4511;50.890;8.054;2023-03-03T15:56:19;14.90;65.10
8953;DHT22;4511;50.890;8.054;2023-03-03T15:59:16;16.70;61.10
8953;DHT22;4511;50.890;8.054;2023-03-03T16:01:52;17.50;59.20
8953;DHT22;4511;50.890;8.054;2023-03-03T16:04:26;18.40;58.20
8953;DHT22;4511;50.890;8.054;2023-03-03T16:06:58;18.80;57.00
8953;DHT22;4511;50.890;8.054;2023-03-03T16:09:37;18.90;57.00
8953;DHT22;4511;50.890;8.054;2023-03-03T16:12:14;19.20;56.00
8953;DHT22;4511;50.890;8.054;2023-03-03T16:14:53;19.20;55.70
8953;DHT22;4511;50.890;8.054;2023-03-03T16:17:30;18.70;55.80
8953;DHT22;4511;50.890;8.054;2023-03-03T16:20:06;18.50;56.60
8953;DHT22;4511;50.890;8.054;2023-03-03T16:22:45;18.50;55.90
8953;DHT22;4511;50.890;8.054;2023-03-03T16:25:26;18.60;56.30
8953;DHT22;4511;50.890;8.054;2023-03-03T16:27:59;18.50;56.30
8953;DHT22;4511;50.890;8.054;2023-03-03T16:30:30;18.70;55.80
8953;DHT22;4511;50.890;8.054;2023-03-03T16:33:09;18.70;55.50
8953;DHT22;4511;50.890;8.054;2023-03-03T16:35:41;18.60;55.50
8953;DHT22;4511;50.890;8.054;2023-03-03T16:38:11;18.40;56.00
8953;DHT22;4511;50.890;8.054;2023-03-03T16:40:45;17.80;55.80
8953;DHT22;4511;50.890;8.054;2023-03-03T16:43:21;16.90;57.10
8953;DHT22;4511;50.890;8.054;2023-03-03T16:45:56;16.10;58.10
8953;DHT22;4511;50.890;8.054;2023-03-03T16:48:31;14.90;59.50
8953;DHT22;4511;50.890;8.054;2023-03-03T16:51:15;13.80;61.20
8953;DHT22;4511;50.890;8.054;2023-03-03T16:53:51;12.80;63.90
8953;DHT22;4511;50.890;8.054;2023-03-03T16:56:22;12.30;65.50
8953;DHT22;4511;50.890;8.054;2023-03-03T16:59:24;11.60;67.00